DAL1553 KDEN-KSLC
Flight info
| Callsign | DAL1553 |
|---|---|
| Flight time | 1h 11m |
| Altitude | 34000 |
| Route | DDRTH1 DDRTH CKW CARTR1 |
| Aircraft | A321/M-SDE3FGHIRWY/LB1 |
Departure
| Time | 2026-05-05 07:52 |
|---|---|
| Airport | Denver International Airport (KDEN) |
Arrival
| Time | 2026-05-05 09:03 |
|---|---|
| Airport | Salt Lake City International Airport (KSLC) |
| Time | Latitude | Longitude | Altitude | Speed | Heading |
|---|---|---|---|---|---|
| 2026-05-05 07:12 | 39.85449 | -104.67068 | 5384 ft | 0 kts | 180° |
| 2026-05-05 07:41 | 39.85470 | -104.67067 | 5380 ft | 4 kts | 189° |
| 2026-05-05 07:42 | 39.85496 | -104.67058 | 5382 ft | 4 kts | 205° |
| 2026-05-05 07:42 | 39.85519 | -104.67040 | 5382 ft | 4 kts | 224° |
| 2026-05-05 07:42 | 39.85535 | -104.67013 | 5379 ft | 4 kts | 248° |
| 2026-05-05 07:42 | 39.85540 | -104.66986 | 5383 ft | 0 kts | 270° |
| 2026-05-05 07:44 | 39.85540 | -104.66987 | 5383 ft | 1 kts | 271° |
| 2026-05-05 07:44 | 39.85557 | -104.67042 | 5381 ft | 14 kts | 290° |
| 2026-05-05 07:45 | 39.85587 | -104.67162 | 5382 ft | 13 kts | 278° |
| 2026-05-05 07:45 | 39.85591 | -104.67273 | 5382 ft | 12 kts | 270° |
| 2026-05-05 07:45 | 39.85591 | -104.67377 | 5382 ft | 10 kts | 270° |
| 2026-05-05 07:45 | 39.85592 | -104.67464 | 5382 ft | 11 kts | 270° |
| 2026-05-05 07:46 | 39.85593 | -104.67604 | 5382 ft | 16 kts | 271° |
| 2026-05-05 07:46 | 39.85594 | -104.67697 | 5382 ft | 15 kts | 270° |
| 2026-05-05 07:46 | 39.85594 | -104.67853 | 5382 ft | 11 kts | 270° |
| 2026-05-05 07:46 | 39.85595 | -104.67948 | 5382 ft | 10 kts | 270° |
| 2026-05-05 07:47 | 39.85595 | -104.68027 | 5382 ft | 9 kts | 270° |
| 2026-05-05 07:47 | 39.85596 | -104.68139 | 5382 ft | 15 kts | 270° |
| 2026-05-05 07:47 | 39.85597 | -104.68266 | 5379 ft | 14 kts | 271° |
| 2026-05-05 07:47 | 39.85598 | -104.68392 | 5376 ft | 14 kts | 271° |
| 2026-05-05 07:48 | 39.85566 | -104.68507 | 5370 ft | 14 kts | 204° |
| 2026-05-05 07:48 | 39.85485 | -104.68515 | 5374 ft | 9 kts | 181° |
| 2026-05-05 07:48 | 39.85432 | -104.68516 | 5375 ft | 6 kts | 180° |
| 2026-05-05 07:48 | 39.85329 | -104.68514 | 5376 ft | 31 kts | 178° |
| 2026-05-05 07:49 | 39.85207 | -104.68576 | 5373 ft | 19 kts | 252° |
| 2026-05-05 07:49 | 39.85201 | -104.68765 | 5365 ft | 22 kts | 268° |
| 2026-05-05 07:49 | 39.85197 | -104.68978 | 5355 ft | 25 kts | 269° |
| 2026-05-05 07:49 | 39.85197 | -104.69194 | 5346 ft | 21 kts | 272° |
| 2026-05-05 07:50 | 39.85201 | -104.69396 | 5342 ft | 23 kts | 271° |
| 2026-05-05 07:50 | 39.85203 | -104.69582 | 5340 ft | 18 kts | 271° |
| 2026-05-05 07:50 | 39.85282 | -104.69663 | 5339 ft | 15 kts | 2° |
| 2026-05-05 07:50 | 39.85288 | -104.69663 | 5338 ft | 0 kts | 2° |
| 2026-05-05 07:51 | 39.85536 | -104.69656 | 5339 ft | 74 kts | 1° |
| 2026-05-05 07:51 | 39.86270 | -104.69645 | 5335 ft | 135 kts | 1° |
| 2026-05-05 07:51 | 39.87383 | -104.69617 | 5340 ft | 183 kts | 3° |
| 2026-05-05 07:51 | 39.88684 | -104.69580 | 5956 ft | 187 kts | 1° |
| 2026-05-05 07:52 | 39.89991 | -104.69572 | 6728 ft | 189 kts | 2° |
| 2026-05-05 07:52 | 39.91310 | -104.69552 | 7238 ft | 192 kts | 1° |
| 2026-05-05 07:52 | 39.92698 | -104.69527 | 7375 ft | 207 kts | 2° |
| 2026-05-05 07:52 | 39.94188 | -104.69496 | 7514 ft | 221 kts | 2° |
| 2026-05-05 07:53 | 39.95778 | -104.69461 | 7645 ft | 236 kts | 1° |
| 2026-05-05 07:53 | 39.97490 | -104.69426 | 7735 ft | 257 kts | 2° |
| 2026-05-05 07:53 | 39.99350 | -104.69388 | 7866 ft | 279 kts | 1° |
| 2026-05-05 07:53 | 40.01341 | -104.69347 | 8238 ft | 291 kts | 1° |
| 2026-05-05 07:54 | 40.03385 | -104.69352 | 8812 ft | 295 kts | 353° |
| 2026-05-05 07:54 | 40.05355 | -104.70092 | 9400 ft | 296 kts | 335° |
| 2026-05-05 07:54 | 40.07264 | -104.71131 | 10017 ft | 299 kts | 335° |
| 2026-05-05 07:54 | 40.09233 | -104.72207 | 10182 ft | 317 kts | 335° |
| 2026-05-05 07:55 | 40.11339 | -104.73317 | 10320 ft | 337 kts | 336° |
| 2026-05-05 07:55 | 40.13583 | -104.74470 | 10466 ft | 355 kts | 336° |
| 2026-05-05 07:55 | 40.15921 | -104.75655 | 10893 ft | 363 kts | 336° |
| 2026-05-05 07:55 | 40.18168 | -104.76787 | 11473 ft | 365 kts | 336° |
| 2026-05-05 07:56 | 40.20570 | -104.77999 | 12125 ft | 366 kts | 337° |
| 2026-05-05 07:56 | 40.22954 | -104.79206 | 12773 ft | 368 kts | 336° |
| 2026-05-05 07:56 | 40.25310 | -104.80407 | 13410 ft | 369 kts | 336° |
| 2026-05-05 07:56 | 40.27738 | -104.81651 | 14009 ft | 371 kts | 336° |
| 2026-05-05 07:57 | 40.30147 | -104.82889 | 14548 ft | 373 kts | 336° |
| 2026-05-05 07:57 | 40.32568 | -104.84135 | 15089 ft | 375 kts | 336° |
| 2026-05-05 07:57 | 40.35000 | -104.85385 | 15596 ft | 377 kts | 336° |
| 2026-05-05 07:57 | 40.37447 | -104.86638 | 16101 ft | 379 kts | 336° |
| 2026-05-05 07:58 | 40.39890 | -104.87889 | 16623 ft | 381 kts | 336° |
| 2026-05-05 07:58 | 40.42384 | -104.89167 | 17135 ft | 383 kts | 336° |
| 2026-05-05 07:58 | 40.44866 | -104.90436 | 17626 ft | 385 kts | 336° |
| 2026-05-05 07:58 | 40.47367 | -104.91718 | 18107 ft | 386 kts | 335° |
| 2026-05-05 07:59 | 40.49881 | -104.93011 | 18530 ft | 388 kts | 335° |
| 2026-05-05 07:59 | 40.52398 | -104.94310 | 18924 ft | 390 kts | 335° |
| 2026-05-05 07:59 | 40.54928 | -104.95620 | 19318 ft | 392 kts | 335° |
| 2026-05-05 07:59 | 40.57473 | -104.96936 | 19698 ft | 394 kts | 335° |
| 2026-05-05 08:00 | 40.60031 | -104.98258 | 20102 ft | 396 kts | 335° |
| 2026-05-05 08:00 | 40.62607 | -104.99590 | 20486 ft | 398 kts | 335° |
| 2026-05-05 08:00 | 40.65189 | -105.00928 | 20943 ft | 401 kts | 335° |
| 2026-05-05 08:00 | 40.67793 | -105.02286 | 21305 ft | 403 kts | 335° |
| 2026-05-05 08:01 | 40.70401 | -105.03647 | 21670 ft | 405 kts | 334° |
| 2026-05-05 08:01 | 40.73030 | -105.05035 | 22027 ft | 407 kts | 332° |
| 2026-05-05 08:01 | 40.75504 | -105.06814 | 22376 ft | 405 kts | 322° |
| 2026-05-05 08:01 | 40.77697 | -105.09122 | 22707 ft | 403 kts | 313° |
| 2026-05-05 08:02 | 40.79556 | -105.11883 | 23018 ft | 404 kts | 305° |
| 2026-05-05 08:02 | 40.81299 | -105.14817 | 23366 ft | 406 kts | 306° |
| 2026-05-05 08:02 | 40.83056 | -105.17753 | 23672 ft | 409 kts | 306° |
| 2026-05-05 08:02 | 40.84824 | -105.20695 | 24000 ft | 410 kts | 306° |
| 2026-05-05 08:03 | 40.86599 | -105.23648 | 24302 ft | 411 kts | 306° |
| 2026-05-05 08:03 | 40.88376 | -105.26612 | 24625 ft | 412 kts | 306° |
| 2026-05-05 08:03 | 40.90158 | -105.29596 | 24921 ft | 414 kts | 306° |
| 2026-05-05 08:03 | 40.91938 | -105.32583 | 25243 ft | 415 kts | 306° |
| 2026-05-05 08:04 | 40.93751 | -105.35627 | 25565 ft | 416 kts | 306° |
| 2026-05-05 08:04 | 40.95540 | -105.38631 | 25855 ft | 417 kts | 306° |
| 2026-05-05 08:04 | 40.97345 | -105.41664 | 26108 ft | 420 kts | 306° |
| 2026-05-05 08:04 | 40.99153 | -105.44706 | 26376 ft | 422 kts | 306° |
| 2026-05-05 08:05 | 41.00972 | -105.47773 | 26675 ft | 423 kts | 306° |
| 2026-05-05 08:05 | 41.02789 | -105.50838 | 26952 ft | 425 kts | 306° |
| 2026-05-05 08:05 | 41.04617 | -105.53926 | 27247 ft | 426 kts | 305° |
| 2026-05-05 08:05 | 41.06440 | -105.57011 | 27530 ft | 427 kts | 305° |
| 2026-05-05 08:06 | 41.08235 | -105.60050 | 27799 ft | 429 kts | 305° |
| 2026-05-05 08:06 | 41.10068 | -105.63172 | 28076 ft | 430 kts | 304° |
| 2026-05-05 08:06 | 41.11908 | -105.66306 | 28287 ft | 432 kts | 306° |
| 2026-05-05 08:06 | 41.13767 | -105.69455 | 28481 ft | 436 kts | 305° |
| 2026-05-05 08:07 | 41.15648 | -105.72635 | 28690 ft | 439 kts | 305° |
| 2026-05-05 08:07 | 41.17534 | -105.75825 | 28925 ft | 441 kts | 305° |
| 2026-05-05 08:07 | 41.19422 | -105.79030 | 29256 ft | 440 kts | 304° |
| 2026-05-05 08:07 | 41.21303 | -105.82232 | 29610 ft | 439 kts | 304° |
| 2026-05-05 08:08 | 41.23176 | -105.85426 | 29955 ft | 438 kts | 304° |
| 2026-05-05 08:08 | 41.25046 | -105.88617 | 30259 ft | 436 kts | 304° |
| 2026-05-05 08:08 | 41.26906 | -105.91795 | 30593 ft | 434 kts | 304° |
| 2026-05-05 08:08 | 41.28750 | -105.94945 | 30857 ft | 431 kts | 303° |
| 2026-05-05 08:09 | 41.30583 | -105.98082 | 31249 ft | 428 kts | 303° |
| 2026-05-05 08:09 | 41.31813 | -106.00191 | 31483 ft | 426 kts | 303° |
| 2026-05-05 08:09 | 41.33618 | -106.03287 | 31865 ft | 422 kts | 303° |
| 2026-05-05 08:09 | 41.35413 | -106.06369 | 32238 ft | 419 kts | 303° |
| 2026-05-05 08:10 | 41.37189 | -106.09425 | 32601 ft | 416 kts | 303° |
| 2026-05-05 08:10 | 41.38947 | -106.12450 | 32959 ft | 413 kts | 303° |
| 2026-05-05 08:10 | 41.40709 | -106.15484 | 33295 ft | 411 kts | 302° |
| 2026-05-05 08:10 | 41.42451 | -106.18484 | 33667 ft | 408 kts | 302° |
| 2026-05-05 08:11 | 41.44181 | -106.21475 | 33817 ft | 405 kts | 301° |
| 2026-05-05 08:11 | 41.45661 | -106.24598 | 33877 ft | 396 kts | 293° |
| 2026-05-05 08:11 | 41.47512 | -106.31513 | 33852 ft | 398 kts | 284° |
| 2026-05-05 08:12 | 41.49117 | -106.38577 | 33849 ft | 398 kts | 284° |
| 2026-05-05 08:12 | 41.50736 | -106.45646 | 33861 ft | 398 kts | 284° |
| 2026-05-05 08:13 | 41.52339 | -106.52712 | 33855 ft | 398 kts | 284° |
| 2026-05-05 08:13 | 41.53933 | -106.59782 | 33855 ft | 398 kts | 284° |
| 2026-05-05 08:14 | 41.55517 | -106.66850 | 33852 ft | 398 kts | 284° |
| 2026-05-05 08:14 | 41.57097 | -106.73929 | 33852 ft | 398 kts | 284° |
| 2026-05-05 08:15 | 41.58678 | -106.81005 | 33851 ft | 398 kts | 284° |
| 2026-05-05 08:15 | 41.60261 | -106.88099 | 33876 ft | 398 kts | 284° |
| 2026-05-05 08:16 | 41.61842 | -106.95244 | 33906 ft | 398 kts | 284° |
| 2026-05-05 08:16 | 41.63402 | -107.02338 | 33929 ft | 398 kts | 284° |
| 2026-05-05 08:17 | 41.64969 | -107.09444 | 33931 ft | 398 kts | 284° |
| 2026-05-05 08:17 | 41.66532 | -107.16540 | 33955 ft | 398 kts | 284° |
| 2026-05-05 08:18 | 41.68087 | -107.23640 | 33966 ft | 398 kts | 284° |
| 2026-05-05 08:18 | 41.69637 | -107.30748 | 33970 ft | 398 kts | 284° |
| 2026-05-05 08:19 | 41.71186 | -107.37865 | 33957 ft | 399 kts | 284° |
| 2026-05-05 08:19 | 41.72737 | -107.45023 | 33920 ft | 401 kts | 284° |
| 2026-05-05 08:20 | 41.74289 | -107.52213 | 33902 ft | 402 kts | 284° |
| 2026-05-05 08:20 | 41.75646 | -107.59467 | 33886 ft | 401 kts | 275° |
| 2026-05-05 08:21 | 41.76114 | -107.66911 | 33862 ft | 401 kts | 274° |
| 2026-05-05 08:21 | 41.76598 | -107.74417 | 33860 ft | 402 kts | 274° |
| 2026-05-05 08:22 | 41.77083 | -107.81875 | 33856 ft | 402 kts | 274° |
| 2026-05-05 08:22 | 41.77556 | -107.89342 | 33867 ft | 402 kts | 274° |
| 2026-05-05 08:23 | 41.78011 | -107.96804 | 33868 ft | 402 kts | 274° |
| 2026-05-05 08:23 | 41.78463 | -108.04277 | 33865 ft | 402 kts | 274° |
| 2026-05-05 08:24 | 41.78910 | -108.11752 | 33864 ft | 404 kts | 274° |
| 2026-05-05 08:24 | 41.79360 | -108.19275 | 33845 ft | 406 kts | 274° |
| 2026-05-05 08:25 | 41.79813 | -108.26826 | 33857 ft | 407 kts | 274° |
| 2026-05-05 08:25 | 41.80256 | -108.34402 | 33858 ft | 408 kts | 274° |
| 2026-05-05 08:26 | 41.80698 | -108.41992 | 33859 ft | 409 kts | 274° |
| 2026-05-05 08:26 | 41.81132 | -108.49595 | 33845 ft | 410 kts | 274° |
| 2026-05-05 08:27 | 41.81563 | -108.57219 | 33851 ft | 411 kts | 274° |
| 2026-05-05 08:27 | 41.81988 | -108.64876 | 33857 ft | 412 kts | 274° |
| 2026-05-05 08:28 | 41.82404 | -108.72537 | 33851 ft | 412 kts | 274° |
| 2026-05-05 08:28 | 41.82821 | -108.80256 | 33862 ft | 412 kts | 273° |
| 2026-05-05 08:29 | 41.83231 | -108.87920 | 33877 ft | 412 kts | 273° |
| 2026-05-05 08:30 | 41.83846 | -108.99426 | 33900 ft | 413 kts | 273° |
| 2026-05-05 08:30 | 41.84239 | -109.07118 | 33891 ft | 414 kts | 273° |
| 2026-05-05 08:31 | 41.84633 | -109.14831 | 33862 ft | 416 kts | 273° |
| 2026-05-05 08:31 | 41.85026 | -109.22588 | 33854 ft | 417 kts | 273° |
| 2026-05-05 08:32 | 41.85408 | -109.30356 | 33837 ft | 418 kts | 273° |
| 2026-05-05 08:32 | 41.85785 | -109.38139 | 33823 ft | 418 kts | 273° |
| 2026-05-05 08:33 | 41.86158 | -109.45927 | 33809 ft | 419 kts | 273° |
| 2026-05-05 08:33 | 41.86532 | -109.53723 | 33796 ft | 419 kts | 273° |
| 2026-05-05 08:34 | 41.86910 | -109.61530 | 33800 ft | 420 kts | 273° |
| 2026-05-05 08:34 | 41.87270 | -109.69345 | 33800 ft | 420 kts | 272° |
| 2026-05-05 08:35 | 41.87623 | -109.77205 | 33803 ft | 420 kts | 272° |
| 2026-05-05 08:35 | 41.87975 | -109.85034 | 33786 ft | 420 kts | 272° |
| 2026-05-05 08:36 | 41.88327 | -109.92875 | 33792 ft | 422 kts | 272° |
| 2026-05-05 08:36 | 41.88676 | -110.00750 | 33781 ft | 423 kts | 272° |
| 2026-05-05 08:37 | 41.89018 | -110.08635 | 33791 ft | 423 kts | 272° |
| 2026-05-05 08:37 | 41.89356 | -110.16519 | 33823 ft | 424 kts | 272° |
| 2026-05-05 08:38 | 41.89683 | -110.24428 | 33859 ft | 425 kts | 272° |
| 2026-05-05 08:38 | 41.90007 | -110.32350 | 33901 ft | 425 kts | 272° |
| 2026-05-05 08:39 | 41.90326 | -110.40281 | 33939 ft | 426 kts | 272° |
| 2026-05-05 08:39 | 41.90644 | -110.48218 | 33959 ft | 426 kts | 272° |
| 2026-05-05 08:40 | 41.90951 | -110.56169 | 33965 ft | 427 kts | 272° |
| 2026-05-05 08:40 | 41.91098 | -110.60141 | 33485 ft | 429 kts | 272° |
| 2026-05-05 08:40 | 41.91246 | -110.64191 | 32109 ft | 440 kts | 272° |
| 2026-05-05 08:40 | 41.91400 | -110.68307 | 31402 ft | 441 kts | 272° |
| 2026-05-05 08:41 | 41.91552 | -110.72385 | 30931 ft | 436 kts | 272° |
| 2026-05-05 08:41 | 41.91703 | -110.76441 | 30377 ft | 433 kts | 273° |
| 2026-05-05 08:41 | 41.91844 | -110.80468 | 29830 ft | 430 kts | 271° |
| 2026-05-05 08:41 | 41.91780 | -110.83175 | 29468 ft | 427 kts | 266° |
| 2026-05-05 08:42 | 41.91584 | -110.87121 | 29168 ft | 423 kts | 266° |
| 2026-05-05 08:42 | 41.91392 | -110.91052 | 28782 ft | 420 kts | 266° |
| 2026-05-05 08:42 | 41.91204 | -110.94955 | 28423 ft | 418 kts | 267° |
| 2026-05-05 08:42 | 41.91021 | -110.98836 | 28065 ft | 416 kts | 267° |
| 2026-05-05 08:43 | 41.90838 | -111.02702 | 27705 ft | 413 kts | 267° |
| 2026-05-05 08:43 | 41.90653 | -111.06540 | 27346 ft | 411 kts | 266° |
| 2026-05-05 08:43 | 41.90466 | -111.10366 | 27002 ft | 409 kts | 266° |
| 2026-05-05 08:43 | 41.90280 | -111.14161 | 26639 ft | 407 kts | 266° |
| 2026-05-05 08:44 | 41.90095 | -111.17946 | 26294 ft | 406 kts | 266° |
| 2026-05-05 08:44 | 41.89910 | -111.21720 | 25948 ft | 405 kts | 266° |
| 2026-05-05 08:44 | 41.89721 | -111.25489 | 25601 ft | 403 kts | 266° |
| 2026-05-05 08:44 | 41.89532 | -111.29229 | 25249 ft | 401 kts | 266° |
| 2026-05-05 08:45 | 41.89341 | -111.32947 | 24907 ft | 398 kts | 266° |
| 2026-05-05 08:45 | 41.89148 | -111.36648 | 24564 ft | 397 kts | 266° |
| 2026-05-05 08:45 | 41.88953 | -111.40335 | 24225 ft | 395 kts | 266° |
| 2026-05-05 08:45 | 41.88761 | -111.44001 | 23893 ft | 393 kts | 266° |
| 2026-05-05 08:46 | 41.88569 | -111.47649 | 23568 ft | 390 kts | 266° |
| 2026-05-05 08:46 | 41.88376 | -111.51272 | 23209 ft | 389 kts | 266° |
| 2026-05-05 08:46 | 41.88183 | -111.54883 | 22857 ft | 388 kts | 265° |
| 2026-05-05 08:46 | 41.87736 | -111.58437 | 22596 ft | 386 kts | 256° |
| 2026-05-05 08:47 | 41.87037 | -111.61900 | 22264 ft | 384 kts | 255° |
| 2026-05-05 08:47 | 41.86350 | -111.65357 | 21944 ft | 383 kts | 256° |
| 2026-05-05 08:47 | 41.85676 | -111.68797 | 21621 ft | 381 kts | 256° |
| 2026-05-05 08:47 | 41.85007 | -111.72224 | 21291 ft | 379 kts | 256° |
| 2026-05-05 08:48 | 41.84341 | -111.75630 | 20981 ft | 377 kts | 256° |
| 2026-05-05 08:48 | 41.83671 | -111.79028 | 20655 ft | 376 kts | 256° |
| 2026-05-05 08:48 | 41.83000 | -111.82417 | 20314 ft | 377 kts | 256° |
| 2026-05-05 08:48 | 41.82324 | -111.85807 | 19985 ft | 377 kts | 256° |
| 2026-05-05 08:49 | 41.81648 | -111.89196 | 19660 ft | 375 kts | 256° |
| 2026-05-05 08:49 | 41.80965 | -111.92607 | 19327 ft | 374 kts | 255° |
| 2026-05-05 08:49 | 41.80035 | -111.95800 | 18986 ft | 373 kts | 240° |
| 2026-05-05 08:49 | 41.78448 | -111.98580 | 18668 ft | 373 kts | 224° |
| 2026-05-05 08:50 | 41.76351 | -112.00611 | 18327 ft | 373 kts | 207° |
| 2026-05-05 08:50 | 41.73916 | -112.01768 | 17963 ft | 372 kts | 191° |
| 2026-05-05 08:50 | 41.71355 | -112.02223 | 17619 ft | 371 kts | 187° |
| 2026-05-05 08:50 | 41.68792 | -112.02619 | 17297 ft | 370 kts | 187° |
| 2026-05-05 08:51 | 41.66238 | -112.03010 | 16981 ft | 368 kts | 186° |
| 2026-05-05 08:51 | 41.63689 | -112.03403 | 16772 ft | 369 kts | 186° |
| 2026-05-05 08:51 | 41.61147 | -112.03797 | 16456 ft | 367 kts | 187° |
| 2026-05-05 08:51 | 41.58609 | -112.04195 | 16129 ft | 366 kts | 182° |
| 2026-05-05 08:52 | 41.56087 | -112.04526 | 15803 ft | 364 kts | 182° |
| 2026-05-05 08:52 | 41.53558 | -112.04456 | 15495 ft | 363 kts | 178° |
| 2026-05-05 08:52 | 41.51042 | -112.04321 | 15182 ft | 362 kts | 177° |
| 2026-05-05 08:52 | 41.48536 | -112.04182 | 14872 ft | 360 kts | 177° |
| 2026-05-05 08:53 | 41.46035 | -112.04040 | 14491 ft | 358 kts | 176° |
| 2026-05-05 08:53 | 41.43544 | -112.03895 | 14200 ft | 358 kts | 177° |
| 2026-05-05 08:53 | 41.41065 | -112.03756 | 13902 ft | 356 kts | 177° |
| 2026-05-05 08:53 | 41.38593 | -112.03623 | 13608 ft | 355 kts | 177° |
| 2026-05-05 08:54 | 41.36141 | -112.03494 | 13292 ft | 352 kts | 177° |
| 2026-05-05 08:54 | 41.33693 | -112.03361 | 12996 ft | 351 kts | 177° |
| 2026-05-05 08:54 | 41.31270 | -112.03227 | 12707 ft | 347 kts | 178° |
| 2026-05-05 08:54 | 41.28863 | -112.03094 | 12431 ft | 345 kts | 178° |
| 2026-05-05 08:55 | 41.26479 | -112.02962 | 12136 ft | 341 kts | 178° |
| 2026-05-05 08:55 | 41.24110 | -112.02910 | 11721 ft | 342 kts | 181° |
| 2026-05-05 08:55 | 41.21694 | -112.03032 | 10807 ft | 351 kts | 185° |
| 2026-05-05 08:55 | 41.19299 | -112.03260 | 10359 ft | 332 kts | 186° |
| 2026-05-05 08:56 | 41.17098 | -112.03503 | 10212 ft | 304 kts | 187° |
| 2026-05-05 08:56 | 41.15050 | -112.03737 | 9771 ft | 292 kts | 186° |
| 2026-05-05 08:56 | 41.13001 | -112.03736 | 9570 ft | 288 kts | 178° |
| 2026-05-05 08:56 | 41.11013 | -112.03494 | 9435 ft | 287 kts | 176° |
| 2026-05-05 08:57 | 41.09009 | -112.03231 | 8959 ft | 290 kts | 176° |
| 2026-05-05 08:57 | 41.07013 | -112.02994 | 8524 ft | 289 kts | 176° |
| 2026-05-05 08:57 | 41.05030 | -112.02763 | 8038 ft | 283 kts | 176° |
| 2026-05-05 08:57 | 41.03136 | -112.02541 | 7854 ft | 260 kts | 176° |
| 2026-05-05 08:58 | 41.01415 | -112.02338 | 7769 ft | 242 kts | 176° |
| 2026-05-05 08:58 | 40.99753 | -112.02145 | 7651 ft | 236 kts | 176° |
| 2026-05-05 08:58 | 40.98216 | -112.01963 | 7570 ft | 208 kts | 177° |
| 2026-05-05 08:58 | 40.96820 | -112.01800 | 7370 ft | 191 kts | 177° |
| 2026-05-05 08:59 | 40.95573 | -112.01655 | 7104 ft | 172 kts | 175° |
| 2026-05-05 08:59 | 40.94410 | -112.01519 | 6902 ft | 165 kts | 176° |
| 2026-05-05 08:59 | 40.93286 | -112.01388 | 6718 ft | 162 kts | 175° |
| 2026-05-05 08:59 | 40.92180 | -112.01259 | 6538 ft | 158 kts | 175° |
| 2026-05-05 09:00 | 40.91092 | -112.01132 | 6353 ft | 157 kts | 174° |
| 2026-05-05 09:00 | 40.90011 | -112.01006 | 6165 ft | 155 kts | 175° |
| 2026-05-05 09:00 | 40.88936 | -112.00881 | 5972 ft | 155 kts | 176° |
| 2026-05-05 09:00 | 40.87863 | -112.00755 | 5760 ft | 153 kts | 175° |
| 2026-05-05 09:01 | 40.86799 | -112.00631 | 5527 ft | 154 kts | 175° |
| 2026-05-05 09:01 | 40.85713 | -112.00504 | 5303 ft | 156 kts | 174° |
| 2026-05-05 09:01 | 40.84642 | -112.00379 | 5079 ft | 155 kts | 175° |
| 2026-05-05 09:01 | 40.83566 | -112.00254 | 4856 ft | 155 kts | 175° |
| 2026-05-05 09:02 | 40.82500 | -112.00130 | 4633 ft | 154 kts | 175° |
| 2026-05-05 09:02 | 40.81436 | -112.00006 | 4417 ft | 153 kts | 175° |
| 2026-05-05 09:02 | 40.80381 | -111.99883 | 4237 ft | 149 kts | 175° |
| 2026-05-05 09:02 | 40.79564 | -111.99796 | 4229 ft | 76 kts | 176° |
| 2026-05-05 09:03 | 40.79326 | -111.99765 | 4230 ft | 8 kts | 169° |
| 2026-05-05 09:03 | 40.79245 | -111.99731 | 4231 ft | 13 kts | 159° |
| 2026-05-05 09:03 | 40.79168 | -111.99682 | 4231 ft | 11 kts | 146° |
| 2026-05-05 09:03 | 40.79115 | -111.99612 | 4232 ft | 10 kts | 126° |
| 2026-05-05 09:04 | 40.79093 | -111.99537 | 4232 ft | 8 kts | 99° |
| 2026-05-05 09:04 | 40.79096 | -111.99442 | 4231 ft | 18 kts | 85° |
| 2026-05-05 09:04 | 40.79108 | -111.99257 | 4231 ft | 23 kts | 85° |
| 2026-05-05 09:04 | 40.79121 | -111.99056 | 4231 ft | 21 kts | 84° |
| 2026-05-05 09:05 | 40.79134 | -111.98870 | 4231 ft | 20 kts | 85° |
| 2026-05-05 09:05 | 40.79145 | -111.98703 | 4231 ft | 15 kts | 87° |
| 2026-05-05 09:05 | 40.79093 | -111.98619 | 4231 ft | 12 kts | 170° |
| 2026-05-05 09:05 | 40.79037 | -111.98563 | 4231 ft | 10 kts | 99° |
| 2026-05-05 09:06 | 40.79042 | -111.98481 | 4231 ft | 8 kts | 84° |
| 2026-05-05 09:06 | 40.79048 | -111.98378 | 4231 ft | 13 kts | 85° |
| 2026-05-05 09:06 | 40.79053 | -111.98274 | 4231 ft | 7 kts | 99° |
| 2026-05-05 09:06 | 40.79042 | -111.98263 | 4229 ft | 1 kts | 152° |
| 2026-05-05 09:07 | 40.79024 | -111.98258 | 4231 ft | 4 kts | 169° |
| 2026-05-05 09:07 | 40.79005 | -111.98255 | 4231 ft | 2 kts | 174° |
| 2026-05-05 09:07 | 40.78997 | -111.98254 | 4231 ft | 0 kts | 174° |
| 2026-05-05 09:07 | 40.78995 | -111.98254 | 4231 ft | 1 kts | 175° |
| 2026-05-05 09:08 | 40.78992 | -111.98253 | 4231 ft | 0 kts | 175° |
| 2026-05-05 09:08 | 40.78989 | -111.98253 | 4231 ft | 0 kts | 175° |
| 2026-05-05 09:08 | 40.78990 | -111.98253 | 4231 ft | 0 kts | 175° |